Time;durP1;ratioP1;P1;durP2;ratioP2;P2;SDS_P1;SDS_P2;PMS_P1;PMS_P2;Temp;Humidity;BMP_temperature;BMP_pressure;BME280_temperature;BME280_humidity;BME280_pressure;Samples;Min_cycle;Max_cycle;Signal;HPM_P1;HPM_P2
2022/06/01 00:00:42;;;;;;;;;;;9.10;99.90;;;;;;4764740;30;19965;-86
2022/06/01 00:03:08;;;;;;;;;;;9.60;99.90;;;;;;4742680;30;20094;-86
2022/06/01 00:05:34;;;;;;;;;;;9.10;99.90;;;;;;4746229;30;19934;-86
2022/06/01 00:07:59;;;;;;;;;;;8.70;99.90;;;;;;4731088;30;19926;-86
2022/06/01 00:10:25;;;;;;;;;;;9.00;99.90;;;;;;4752015;30;19925;-86
2022/06/01 00:12:51;;;;;;;;;;;9.80;99.90;;;;;;4745247;30;19936;-86
2022/06/01 00:15:17;;;;;;;;;;;9.00;99.90;;;;;;4751577;30;20016;-91
2022/06/01 00:17:43;;;;;;;;;;;9.20;99.90;;;;;;4765052;30;19933;-86
2022/06/01 00:20:09;;;;;;;;;;;8.90;99.90;;;;;;4748077;30;19926;-88
2022/06/01 00:22:36;;;;;;;;;;;8.90;99.90;;;;;;4745288;30;19926;-86
2022/06/01 00:25:04;;;;;;;;;;;8.90;99.90;;;;;;4757332;30;19925;-87
2022/06/01 00:27:30;;;;;;;;;;;8.90;99.90;;;;;;4748616;30;19976;-87
2022/06/01 00:29:57;;;;;;;;;;;8.90;99.90;;;;;;4748416;30;20349;-87
2022/06/01 00:32:22;;;;;;;;;;;9.70;99.90;;;;;;4749992;30;19977;-86
2022/06/01 00:34:48;;;;;;;;;;;9.60;99.90;;;;;;4755766;30;19965;-87
2022/06/01 00:37:14;;;;;;;;;;;9.80;99.90;;;;;;4761176;30;19926;-87
2022/06/01 00:39:39;;;;;;;;;;;9.20;99.90;;;;;;4745300;30;19926;-87
2022/06/01 00:42:10;;;;;;;;;;;9.30;99.90;;;;;;4745523;30;19926;-86
2022/06/01 00:44:35;;;;;;;;;;;9.10;99.90;;;;;;4764471;30;20334;-86
2022/06/01 00:47:01;;;;;;;;;;;9.10;99.90;;;;;;4747228;30;19940;-86
2022/06/01 00:49:28;;;;;;;;;;;9.10;99.90;;;;;;4745181;30;19984;-86
2022/06/01 00:51:53;;;;;;;;;;;9.20;99.90;;;;;;4744830;30;19926;-86
2022/06/01 00:54:19;;;;;;;;;;;10.00;99.90;;;;;;4762466;30;20016;-87
2022/06/01 00:57:18;;;;;;;;;;;9.60;99.90;;;;;;5117394;27;1984804;-85
2022/06/01 00:59:44;;;;;;;;;;;9.30;99.90;;;;;;5168132;27;19968;-85
2022/06/01 01:02:11;;;;;;;;;;;9.30;99.90;;;;;;5156075;27;19923;-86
2022/06/01 01:04:38;;;;;;;;;;;9.40;99.90;;;;;;5155595;27;19930;-85
2022/06/01 01:07:07;;;;;;;;;;;10.30;99.90;;;;;;5156452;27;19930;-86
2022/06/01 01:09:34;;;;;;;;;;;8.70;99.90;;;;;;5174284;27;19968;-86
2022/06/01 01:12:05;;;;;;;;;;;10.40;99.90;;;;;;5154531;27;19923;-86
2022/06/01 01:14:31;;;;;;;;;;;9.50;99.90;;;;;;5154390;27;20401;-85
2022/06/01 01:16:59;;;;;;;;;;;9.90;99.90;;;;;;5137206;27;19923;-85
2022/06/01 01:19:37;;;;;;;;;;;9.60;99.90;;;;;;5155711;27;20371;-86
2022/06/01 01:22:07;;;;;;;;;;;9.60;99.90;;;;;;5147481;27;19927;-85
2022/06/01 01:24:41;;;;;;;;;;;9.60;99.90;;;;;;5154813;27;19923;-87
2022/06/01 01:27:07;;;;;;;;;;;9.60;99.90;;;;;;5155187;27;19929;-86
2022/06/01 01:29:36;;;;;;;;;;;9.60;99.90;;;;;;5154481;27;20022;-86
2022/06/01 01:32:02;;;;;;;;;;;9.60;99.90;;;;;;5153851;27;19980;-87
2022/06/01 01:34:28;;;;;;;;;;;9.60;99.90;;;;;;5172561;27;20349;-86
2022/06/01 01:36:56;;;;;;;;;;;9.60;99.90;;;;;;5153392;27;19923;-86
2022/06/01 01:39:22;;;;;;;;;;;9.70;99.90;;;;;;5165771;27;19926;-86
2022/06/01 01:41:48;;;;;;;;;;;9.60;99.90;;;;;;5172246;27;19927;-87
2022/06/01 01:44:34;;;;;;;;;;;9.60;99.90;;;;;;5164129;27;19966;-87
2022/06/01 01:47:00;;;;;;;;;;;9.40;99.90;;;;;;5151852;27;19969;-86
2022/06/01 01:49:31;;;;;;;;;;;10.30;99.90;;;;;;5172076;27;20438;-86
2022/06/01 01:51:59;;;;;;;;;;;9.60;99.90;;;;;;5154420;27;19930;-86
2022/06/01 01:54:41;;;;;;;;;;;9.60;99.90;;;;;;5173022;27;20368;-87
2022/06/01 01:57:25;;;;;;;;;;;9.60;99.90;;;;;;5158179;27;20347;-89
2022/06/01 01:59:51;;;;;;;;;;;9.10;99.90;;;;;;5163020;27;19982;-89
2022/06/01 02:02:20;;;;;;;;;;;9.00;99.90;;;;;;5162884;27;19977;-90
2022/06/01 02:07:40;;;;;;;;;;;9.60;99.90;;;;;;5143945;27;19967;-89
2022/06/01 02:12:50;;;;;;;;;;;9.60;99.90;;;;;;5158416;27;20010;-88
2022/06/01 02:15:18;;;;;;;;;;;9.60;99.90;;;;;;5122892;27;19979;-86
2022/06/01 02:17:49;;;;;;;;;;;9.30;99.90;;;;;;5139329;27;19923;-88
2022/06/01 02:20:21;;;;;;;;;;;9.60;99.90;;;;;;5161153;27;19923;-90
2022/06/01 02:22:47;;;;;;;;;;;9.90;99.90;;;;;;5145927;27;19930;-90
2022/06/01 02:25:13;;;;;;;;;;;9.60;99.90;;;;;;5163327;27;20263;-90
2022/06/01 02:27:41;;;;;;;;;;;10.40;99.90;;;;;;5160585;27;19975;-86
2022/06/01 02:30:09;;;;;;;;;;;9.60;99.90;;;;;;5139863;27;19969;-87
2022/06/01 02:32:36;;;;;;;;;;;9.60;99.90;;;;;;5158268;27;19930;-87
2022/06/01 02:35:03;;;;;;;;;;;10.60;99.90;;;;;;5158124;27;19929;-87
2022/06/01 02:37:29;;;;;;;;;;;10.10;99.90;;;;;;5156964;27;19976;-85
2022/06/01 02:39:56;;;;;;;;;;;9.70;99.90;;;;;;5139022;27;20323;-86
2022/06/01 02:42:28;;;;;;;;;;;10.20;99.90;;;;;;5157352;27;19930;-86
2022/06/01 02:45:04;;;;;;;;;;;9.60;99.90;;;;;;5139742;27;19923;-86
2022/06/01 02:47:31;;;;;;;;;;;9.60;99.90;;;;;;5156523;27;20055;-88
2022/06/01 02:49:58;;;;;;;;;;;9.60;99.90;;;;;;5150469;27;19993;-86
2022/06/01 02:52:23;;;;;;;;;;;9.60;99.90;;;;;;5137921;27;20298;-86
2022/06/01 02:54:49;;;;;;;;;;;9.70;99.90;;;;;;5156965;27;19923;-86
2022/06/01 02:57:15;;;;;;;;;;;10.30;99.90;;;;;;5138837;27;19923;-86
2022/06/01 02:59:41;;;;;;;;;;;9.80;99.90;;;;;;5156737;27;19970;-87
2022/06/01 03:02:09;;;;;;;;;;;9.70;99.90;;;;;;5158636;27;19923;-86
2022/06/01 03:04:35;;;;;;;;;;;9.70;99.90;;;;;;5157736;27;19929;-86
2022/06/01 03:07:02;;;;;;;;;;;9.90;99.90;;;;;;5139271;27;19934;-85
2022/06/01 03:09:28;;;;;;;;;;;9.70;99.90;;;;;;5157056;27;19923;-85
2022/06/01 03:11:54;;;;;;;;;;;10.40;99.90;;;;;;5157214;27;20002;-85
2022/06/01 03:14:19;;;;;;;;;;;9.80;99.90;;;;;;5138594;27;20398;-85
2022/06/01 03:16:45;;;;;;;;;;;9.80;99.90;;;;;;5138145;27;19976;-85
2022/06/01 03:19:11;;;;;;;;;;;10.40;99.90;;;;;;5136756;27;19931;-86
2022/06/01 03:21:37;;;;;;;;;;;10.10;99.90;;;;;;5137756;27;19930;-85
2022/06/01 03:24:05;;;;;;;;;;;9.80;99.90;;;;;;5138408;27;19923;-87
2022/06/01 03:26:30;;;;;;;;;;;9.80;99.90;;;;;;5156059;27;19934;-85
2022/06/01 03:28:56;;;;;;;;;;;10.00;99.90;;;;;;5155933;27;19927;-85
2022/06/01 03:31:21;;;;;;;;;;;9.80;99.90;;;;;;5156049;27;19970;-86
2022/06/01 03:33:47;;;;;;;;;;;10.70;99.90;;;;;;5155761;27;20306;-85
2022/06/01 03:36:13;;;;;;;;;;;10.30;99.90;;;;;;5156369;27;19924;-85
2022/06/01 03:38:38;;;;;;;;;;;9.90;99.90;;;;;;5137945;27;19992;-85
2022/06/01 03:41:04;;;;;;;;;;;9.80;99.90;;;;;;5155578;27;20320;-85
2022/06/01 03:43:30;;;;;;;;;;;10.40;99.90;;;;;;5155897;27;19923;-85
2022/06/01 03:45:59;;;;;;;;;;;10.70;99.90;;;;;;5156115;27;19966;-85
2022/06/01 03:48:29;;;;;;;;;;;10.00;99.90;;;;;;5155792;27;20375;-86
2022/06/01 03:50:55;;;;;;;;;;;9.80;99.90;;;;;;5136989;27;19968;-85
2022/06/01 03:53:23;;;;;;;;;;;9.70;99.90;;;;;;5137045;27;19931;-85
2022/06/01 03:55:48;;;;;;;;;;;9.80;99.90;;;;;;5155644;27;19923;-86
2022/06/01 03:58:15;;;;;;;;;;;10.20;99.90;;;;;;5155696;27;20001;-86
2022/06/01 04:00:41;;;;;;;;;;;10.50;99.90;;;;;;5137224;27;19968;-87
2022/06/01 04:03:07;;;;;;;;;;;10.30;99.90;;;;;;5155039;27;19930;-88
2022/06/01 04:05:32;;;;;;;;;;;9.80;99.90;;;;;;5137281;27;20306;-88
2022/06/01 04:07:58;;;;;;;;;;;10.70;99.90;;;;;;5137282;27;19930;-86
2022/06/01 04:10:24;;;;;;;;;;;9.90;99.90;;;;;;5155680;27;19930;-87
2022/06/01 04:12:50;;;;;;;;;;;10.40;99.90;;;;;;5154918;27;20016;-87
2022/06/01 04:15:16;;;;;;;;;;;10.40;99.90;;;;;;5154916;27;20264;-87
2022/06/01 04:17:41;;;;;;;;;;;10.10;99.90;;;;;;5136965;27;19923;-86
2022/06/01 04:20:08;;;;;;;;;;;10.00;99.90;;;;;;5136995;27;19949;-86
2022/06/01 04:22:34;;;;;;;;;;;10.00;99.90;;;;;;5136848;27;19923;-87
2022/06/01 04:25:00;;;;;;;;;;;10.00;99.90;;;;;;5155026;27;19919;-86
2022/06/01 04:27:25;;;;;;;;;;;10.00;99.90;;;;;;5155547;27;20279;-86
2022/06/01 04:29:51;;;;;;;;;;;10.10;99.90;;;;;;5136848;27;20378;-85
2022/06/01 04:32:21;;;;;;;;;;;10.20;99.90;;;;;;5155276;27;19919;-86
2022/06/01 04:34:47;;;;;;;;;;;10.10;99.90;;;;;;5136305;27;19931;-85
2022/06/01 04:37:13;;;;;;;;;;;10.20;99.90;;;;;;5137663;27;19923;-86
2022/06/01 04:39:38;;;;;;;;;;;10.20;99.90;;;;;;5156072;27;19996;-85
2022/06/01 04:42:06;;;;;;;;;;;10.20;99.90;;;;;;5155770;27;19923;-85
2022/06/01 04:44:31;;;;;;;;;;;10.20;99.90;;;;;;5154447;27;19931;-85
2022/06/01 04:46:57;;;;;;;;;;;10.30;99.90;;;;;;5136286;27;19930;-84
2022/06/01 04:49:22;;;;;;;;;;;11.30;99.90;;;;;;5135910;27;19983;-85
2022/06/01 04:51:48;;;;;;;;;;;11.20;99.90;;;;;;5136128;27;19930;-85
2022/06/01 04:54:14;;;;;;;;;;;10.40;99.90;;;;;;5154622;27;20001;-85
2022/06/01 04:56:39;;;;;;;;;;;10.50;99.90;;;;;;5135242;27;19938;-86
2022/06/01 04:59:05;;;;;;;;;;;10.50;99.90;;;;;;5136305;27;20022;-85
2022/06/01 05:01:30;;;;;;;;;;;11.30;99.90;;;;;;5154998;27;19927;-85
2022/06/01 05:03:56;;;;;;;;;;;10.10;99.90;;;;;;5154354;27;19923;-84
2022/06/01 05:06:22;;;;;;;;;;;11.20;99.90;;;;;;5154281;27;19923;-84
2022/06/01 05:08:48;;;;;;;;;;;10.60;99.90;;;;;;5154324;27;19975;-86
2022/06/01 05:11:13;;;;;;;;;;;10.60;99.90;;;;;;5154914;27;20374;-84
2022/06/01 05:13:41;;;;;;;;;;;10.70;99.90;;;;;;5154672;27;19923;-87
2022/06/01 05:16:07;;;;;;;;;;;11.20;99.90;;;;;;5154520;27;19946;-85
2022/06/01 05:18:32;;;;;;;;;;;10.80;99.90;;;;;;5135723;27;19923;-85
2022/06/01 05:20:58;;;;;;;;;;;10.80;99.90;;;;;;5136329;27;20142;-85
2022/06/01 05:23:25;;;;;;;;;;;10.80;99.90;;;;;;5136364;27;19931;-84
2022/06/01 05:25:51;;;;;;;;;;;10.90;99.90;;;;;;5153852;27;20406;-85
2022/06/01 05:28:19;;;;;;;;;;;10.90;99.90;;;;;;5154521;27;19919;-85
2022/06/01 05:30:44;;;;;;;;;;;11.20;99.90;;;;;;5136313;27;19970;-85
2022/06/01 05:33:10;;;;;;;;;;;11.40;99.90;;;;;;5135541;27;20014;-85
2022/06/01 05:35:35;;;;;;;;;;;11.00;99.90;;;;;;5118069;27;19984;-85
2022/06/01 05:38:01;;;;;;;;;;;11.20;99.90;;;;;;5135695;27;19923;-84
2022/06/01 05:40:30;;;;;;;;;;;11.50;99.90;;;;;;5135881;27;20370;-85
2022/06/01 05:42:59;;;;;;;;;;;11.20;99.90;;;;;;5156799;27;19927;-86
2022/06/01 05:45:25;;;;;;;;;;;11.30;99.90;;;;;;5158346;27;19930;-85
2022/06/01 05:47:52;;;;;;;;;;;11.30;99.90;;;;;;5139419;27;19927;-86
2022/06/01 05:50:18;;;;;;;;;;;11.40;99.90;;;;;;5139364;27;19976;-86
2022/06/01 05:52:43;;;;;;;;;;;12.00;99.90;;;;;;5158062;27;19927;-85
2022/06/01 05:55:10;;;;;;;;;;;11.50;99.90;;;;;;5139169;27;19923;-85
2022/06/01 05:57:36;;;;;;;;;;;11.60;99.90;;;;;;5158223;27;19923;-86
2022/06/01 06:00:04;;;;;;;;;;;12.30;99.90;;;;;;5157337;27;20413;-85
2022/06/01 06:02:30;;;;;;;;;;;11.80;99.90;;;;;;5157726;27;19962;-85
2022/06/01 06:04:56;;;;;;;;;;;12.30;99.90;;;;;;5139469;27;19923;-85
2022/06/01 06:07:21;;;;;;;;;;;12.00;99.90;;;;;;5158007;27;19930;-85
2022/06/01 06:09:47;;;;;;;;;;;12.10;99.90;;;;;;5157235;27;19927;-85
2022/06/01 06:12:13;;;;;;;;;;;12.20;99.90;;;;;;5157980;27;20267;-85
2022/06/01 06:14:40;;;;;;;;;;;12.30;99.90;;;;;;5137604;27;19930;-85
2022/06/01 06:17:06;;;;;;;;;;;12.50;99.90;;;;;;5139483;27;20304;-86
2022/06/01 06:19:31;;;;;;;;;;;12.70;99.90;;;;;;5157498;27;19930;-85
2022/06/01 06:21:57;;;;;;;;;;;13.50;99.90;;;;;;5138850;27;20003;-83
2022/06/01 06:24:22;;;;;;;;;;;12.90;99.90;;;;;;5138812;27;19927;-84
2022/06/01 06:26:48;;;;;;;;;;;13.30;99.90;;;;;;5157217;27;20017;-83
2022/06/01 06:29:15;;;;;;;;;;;13.40;99.90;;;;;;5138424;27;19923;-82
2022/06/01 06:31:41;;;;;;;;;;;13.50;99.90;;;;;;5157271;27;19927;-83
2022/06/01 06:34:07;;;;;;;;;;;13.60;99.90;;;;;;5151229;27;19992;-85
2022/06/01 06:36:32;;;;;;;;;;;13.70;99.90;;;;;;5157247;27;19923;-90
2022/06/01 06:38:58;;;;;;;;;;;14.20;99.90;;;;;;5157004;27;20382;-85
2022/06/01 06:41:24;;;;;;;;;;;13.90;99.90;;;;;;5158054;27;19926;-85
2022/06/01 06:43:51;;;;;;;;;;;14.50;99.90;;;;;;5139713;27;19923;-92
2022/06/01 06:46:19;;;;;;;;;;;14.10;99.90;;;;;;5159117;27;20419;-94
2022/06/01 06:52:06;;;;;;;;;;;14.20;99.90;;;;;;5157884;27;19918;-87
2022/06/01 06:54:34;;;;;;;;;;;14.20;99.90;;;;;;5157118;27;20375;-89
2022/06/01 06:57:00;;;;;;;;;;;14.00;99.90;;;;;;5157028;27;20013;-91
2022/06/01 06:59:26;;;;;;;;;;;13.90;99.90;;;;;;5148706;27;20047;-88
2022/06/01 07:01:52;;;;;;;;;;;13.60;99.90;;;;;;5138369;27;19923;-89
2022/06/01 07:04:18;;;;;;;;;;;13.40;99.90;;;;;;5138771;27;20010;-92
2022/06/01 07:06:43;;;;;;;;;;;13.20;99.90;;;;;;5159086;27;19923;-89
2022/06/01 07:09:09;;;;;;;;;;;12.90;99.90;;;;;;5159126;27;19923;-90
2022/06/01 07:11:35;;;;;;;;;;;12.60;99.90;;;;;;5158539;27;19923;-88
2022/06/01 07:14:01;;;;;;;;;;;12.70;99.90;;;;;;5158409;27;19951;-91
2022/06/01 07:16:28;;;;;;;;;;;12.60;99.90;;;;;;5137710;27;19930;-88
2022/06/01 07:18:54;;;;;;;;;;;12.30;99.90;;;;;;5156507;27;20314;-86
2022/06/01 07:21:20;;;;;;;;;;;12.20;99.90;;;;;;5136395;27;20375;-90
2022/06/01 07:23:46;;;;;;;;;;;12.10;99.90;;;;;;5156901;27;19930;-86
2022/06/01 07:26:14;;;;;;;;;;;12.60;99.90;;;;;;5138340;27;20343;-88
2022/06/01 07:28:40;;;;;;;;;;;12.00;99.90;;;;;;5154684;27;19932;-84
2022/06/01 07:31:06;;;;;;;;;;;12.00;99.90;;;;;;5156978;27;19933;-85
2022/06/01 07:33:33;;;;;;;;;;;12.80;99.90;;;;;;5139348;27;19978;-90
2022/06/01 07:35:59;;;;;;;;;;;12.00;99.90;;;;;;5138649;27;20021;-85
2022/06/01 07:43:56;;;;;;;;;;;12.00;99.90;;;;;;5150107;27;20018;-85
2022/06/01 07:46:21;;;;;;;;;;;12.30;99.90;;;;;;5139449;27;19958;-90
2022/06/01 07:48:49;;;;;;;;;;;12.20;99.90;;;;;;5157973;27;19927;-86
2022/06/01 07:51:15;;;;;;;;;;;12.20;99.90;;;;;;5158987;27;19923;-85
2022/06/01 07:53:41;;;;;;;;;;;12.90;99.90;;;;;;5157254;27;19968;-88
2022/06/01 07:56:06;;;;;;;;;;;12.20;99.90;;;;;;5156646;27;19923;-88
2022/06/01 07:58:32;;;;;;;;;;;13.00;99.90;;;;;;5156352;27;19945;-85
2022/06/01 08:00:58;;;;;;;;;;;12.50;99.90;;;;;;5156031;27;19962;-86
2022/06/01 08:03:24;;;;;;;;;;;12.70;99.90;;;;;;5156201;27;19923;-86
2022/06/01 08:05:49;;;;;;;;;;;13.00;99.90;;;;;;5155955;27;20336;-85
2022/06/01 08:08:15;;;;;;;;;;;13.20;99.90;;;;;;5137721;27;20386;-86
2022/06/01 08:10:41;;;;;;;;;;;13.40;99.90;;;;;;5155899;27;19927;-86
2022/06/01 08:13:10;;;;;;;;;;;13.40;99.90;;;;;;5137506;27;19923;-86
2022/06/01 08:15:36;;;;;;;;;;;13.50;99.90;;;;;;5137170;27;20404;-86
2022/06/01 08:18:02;;;;;;;;;;;13.80;99.90;;;;;;5155724;27;19930;-87
2022/06/01 08:20:29;;;;;;;;;;;13.90;99.90;;;;;;5137514;27;20264;-84
2022/06/01 08:22:55;;;;;;;;;;;14.10;99.90;;;;;;5155643;27;19927;-84
2022/06/01 08:25:21;;;;;;;;;;;14.10;99.90;;;;;;5155590;27;19975;-85
2022/06/01 08:27:47;;;;;;;;;;;14.20;99.90;;;;;;5155366;27;20457;-85
2022/06/01 08:30:14;;;;;;;;;;;14.50;99.90;;;;;;5155668;27;19962;-84
2022/06/01 08:32:39;;;;;;;;;;;14.40;99.90;;;;;;5137169;27;19983;-84
2022/06/01 08:35:06;;;;;;;;;;;14.70;99.90;;;;;;5155316;27;20427;-84
2022/06/01 08:37:31;;;;;;;;;;;14.80;99.90;;;;;;5136762;27;19930;-85
2022/06/01 08:39:57;;;;;;;;;;;15.00;99.90;;;;;;5155539;27;20290;-84
2022/06/01 08:42:23;;;;;;;;;;;15.00;99.90;;;;;;5136781;27;19927;-85
2022/06/01 08:44:50;;;;;;;;;;;14.80;99.90;;;;;;5155172;27;19986;-85
2022/06/01 08:47:31;;;;;;;;;;;14.80;99.90;;;;;;5155247;27;20282;-84
2022/06/01 08:49:59;;;;;;;;;;;14.80;99.90;;;;;;5155101;27;19923;-88
2022/06/01 08:52:24;;;;;;;;;;;14.90;99.90;;;;;;5155317;27;20029;-87
2022/06/01 08:54:50;;;;;;;;;;;14.90;99.90;;;;;;5136086;27;19974;-89
2022/06/01 08:57:20;;;;;;;;;;;15.00;99.90;;;;;;5136808;27;19973;-87
2022/06/01 08:59:50;;;;;;;;;;;15.10;99.90;;;;;;5154960;27;19923;-86
2022/06/01 09:02:25;;;;;;;;;;;15.20;99.90;;;;;;5136980;27;19984;-87
2022/06/01 09:05:00;;;;;;;;;;;15.30;99.90;;;;;;5136249;27;19934;-87
2022/06/01 09:07:29;;;;;;;;;;;15.50;99.90;;;;;;5154957;27;19976;-86
2022/06/01 09:09:58;;;;;;;;;;;15.90;99.90;;;;;;5154859;27;19923;-88
2022/06/01 09:12:24;;;;;;;;;;;16.00;99.90;;;;;;5154950;27;19927;-89
2022/06/01 09:14:51;;;;;;;;;;;16.10;99.90;;;;;;5154854;27;20389;-90
2022/06/01 09:17:16;;;;;;;;;;;16.00;99.90;;;;;;5137893;27;19923;-88
2022/06/01 09:22:40;;;;;;;;;;;16.20;99.90;;;;;;5159285;27;19923;-87
2022/06/01 09:25:11;;;;;;;;;;;16.30;99.90;;;;;;5140436;27;19923;-87
2022/06/01 09:27:40;;;;;;;;;;;16.40;99.90;;;;;;5160552;27;19977;-85
2022/06/01 09:30:17;;;;;;;;;;;16.50;99.90;;;;;;5160100;27;19923;-87
2022/06/01 09:32:57;;;;;;;;;;;16.60;99.90;;;;;;5158529;27;19923;-88
2022/06/01 09:35:26;;;;;;;;;;;16.50;99.90;;;;;;5161053;27;19927;-88
2022/06/01 09:37:52;;;;;;;;;;;16.50;99.90;;;;;;5159358;27;19923;-83
2022/06/01 09:40:20;;;;;;;;;;;16.60;99.90;;;;;;5161883;27;20286;-86
2022/06/01 09:42:51;;;;;;;;;;;16.90;99.90;;;;;;5179877;27;19912;-85
2022/06/01 09:45:23;;;;;;;;;;;17.20;99.90;;;;;;5166330;27;19907;-85
2022/06/01 09:47:50;;;;;;;;;;;17.30;99.90;;;;;;5165799;27;19953;-85
2022/06/01 09:50:22;;;;;;;;;;;17.30;99.90;;;;;;5183828;27;19970;-87
2022/06/01 09:52:48;;;;;;;;;;;17.40;99.90;;;;;;5183441;27;19913;-87
2022/06/01 09:55:16;;;;;;;;;;;17.70;99.90;;;;;;5165457;27;19928;-87
2022/06/01 09:57:42;;;;;;;;;;;17.80;99.90;;;;;;5184015;27;20232;-87
2022/06/01 10:08:30;;;;;;;;;;;17.60;99.90;;;;;;5183725;27;19914;-86
2022/06/01 10:10:56;;;;;;;;;;;17.60;99.90;;;;;;5183834;27;19931;-85
2022/06/01 10:13:42;;;;;;;;;;;17.60;99.90;;;;;;5165898;27;19936;-83
2022/06/01 10:16:15;;;;;;;;;;;17.80;99.90;;;;;;5075125;28;19924;-87
2022/06/01 10:18:41;;;;;;;;;;;18.10;99.90;;;;;;5063195;28;19980;-84
2022/06/01 10:21:09;;;;;;;;;;;18.40;99.90;;;;;;5079815;28;19968;-88
2022/06/01 10:23:37;;;;;;;;;;;18.50;99.90;;;;;;5063335;28;19915;-86
2022/06/01 10:26:22;;;;;;;;;;;18.90;99.90;;;;;;5080244;28;19972;-86
2022/06/01 10:28:51;;;;;;;;;;;18.80;99.90;;;;;;5079488;28;19909;-86
2022/06/01 10:31:31;;;;;;;;;;;18.70;99.90;;;;;;5063186;28;19940;-86
2022/06/01 10:34:09;;;;;;;;;;;18.30;99.90;;;;;;5079915;28;19909;-86
2022/06/01 10:36:40;;;;;;;;;;;18.30;99.90;;;;;;5062799;28;19913;-87
2022/06/01 10:39:13;;;;;;;;;;;18.50;99.90;;;;;;5079557;28;19916;-87
2022/06/01 10:41:43;;;;;;;;;;;18.60;99.90;;;;;;5079844;28;19914;-87
2022/06/01 10:44:21;;;;;;;;;;;18.60;99.90;;;;;;5062781;28;19913;-84
2022/06/01 10:47:05;;;;;;;;;;;18.90;99.90;;;;;;5062282;28;19920;-85
2022/06/01 10:49:38;;;;;;;;;;;18.60;99.90;;;;;;5079294;28;19924;-85
2022/06/01 10:52:13;;;;;;;;;;;18.50;99.90;;;;;;5085827;27;19917;-86
2022/06/01 10:54:58;;;;;;;;;;;18.40;99.90;;;;;;5162908;27;19907;-85
2022/06/01 10:57:23;;;;;;;;;;;18.20;99.90;;;;;;5178389;27;19946;-85
2022/06/01 10:59:49;;;;;;;;;;;18.20;99.90;;;;;;5182387;27;19907;-85
2022/06/01 11:02:34;;;;;;;;;;;18.10;99.90;;;;;;5182677;27;19911;-87
2022/06/01 11:05:13;;;;;;;;;;;18.20;99.90;;;;;;5164518;27;19934;-85
2022/06/01 11:07:49;;;;;;;;;;;18.30;99.90;;;;;;5182292;27;19911;-86
2022/06/01 11:10:22;;;;;;;;;;;18.50;99.90;;;;;;5164653;27;19918;-85
2022/06/01 11:12:56;;;;;;;;;;;18.40;99.90;;;;;;5182492;27;19938;-85
2022/06/01 11:15:41;;;;;;;;;;;18.40;99.90;;;;;;5182210;27;19926;-86
2022/06/01 11:18:13;;;;;;;;;;;18.30;99.90;;;;;;5181971;27;19966;-89
2022/06/01 11:20:54;;;;;;;;;;;18.40;99.90;;;;;;5164473;27;19907;-86
2022/06/01 11:23:42;;;;;;;;;;;18.40;99.90;;;;;;5164344;27;19915;-85
2022/06/01 11:26:26;;;;;;;;;;;18.20;99.90;;;;;;5181900;27;19967;-86
2022/06/01 11:29:07;;;;;;;;;;;18.10;99.90;;;;;;5181376;27;19952;-91
2022/06/01 11:31:34;;;;;;;;;;;18.00;99.90;;;;;;5181841;27;19907;-85
2022/06/01 11:34:02;;;;;;;;;;;18.20;99.90;;;;;;5181897;27;19971;-86
2022/06/01 11:36:28;;;;;;;;;;;18.40;99.90;;;;;;5164329;27;19911;-86
2022/06/01 11:39:06;;;;;;;;;;;18.60;99.90;;;;;;5181603;27;19928;-86
2022/06/01 11:41:34;;;;;;;;;;;18.90;99.90;;;;;;5163360;27;19907;-86
2022/06/01 11:44:05;;;;;;;;;;;19.00;99.90;;;;;;5181849;27;19913;-86
2022/06/01 11:46:49;;;;;;;;;;;18.80;99.90;;;;;;5181600;27;19919;-85
2022/06/01 11:49:32;;;;;;;;;;;19.00;99.90;;;;;;5163103;27;19935;-87
2022/06/01 11:52:13;;;;;;;;;;;19.10;99.90;;;;;;5163147;27;19919;-87
2022/06/01 11:54:38;;;;;;;;;;;19.00;99.90;;;;;;5162650;27;19918;-85
2022/06/01 11:57:22;;;;;;;;;;;19.10;99.90;;;;;;5162268;27;20025;-85
2022/06/01 12:00:03;;;;;;;;;;;19.50;99.90;;;;;;5180803;27;19978;-84
2022/06/01 12:02:41;;;;;;;;;;;19.50;99.90;;;;;;5180899;27;19942;-85
2022/06/01 12:05:12;;;;;;;;;;;19.40;99.90;;;;;;5162590;27;19946;-86
2022/06/01 12:07:49;;;;;;;;;;;19.20;99.90;;;;;;5180790;27;19932;-87
2022/06/01 12:10:17;;;;;;;;;;;19.20;99.90;;;;;;5162869;27;19939;-83
2022/06/01 12:13:03;;;;;;;;;;;19.30;99.90;;;;;;5162916;27;19907;-85
2022/06/01 12:15:38;;;;;;;;;;;19.40;99.90;;;;;;5162318;27;19966;-84
2022/06/01 12:18:12;;;;;;;;;;;19.50;99.90;;;;;;5180609;27;19967;-86
2022/06/01 12:20:38;;;;;;;;;;;19.70;99.90;;;;;;5180959;27;19911;-87
2022/06/01 12:29:02;;;;;;;;;;;19.70;99.90;;;;;;5163215;27;19913;-84
2022/06/01 12:31:32;;;;;;;;;;;19.60;99.40;;;;;;5181177;27;19949;-84
2022/06/01 12:37:42;;;;;;;;;;;18.90;99.90;;;;;;5181179;27;19926;-85
2022/06/01 12:40:12;;;;;;;;;;;19.20;99.90;;;;;;5179647;27;19911;-84
2022/06/01 12:42:43;;;;;;;;;;;19.30;99.90;;;;;;5163030;27;20051;-87
2022/06/01 12:45:17;;;;;;;;;;;19.10;99.90;;;;;;5163261;27;19911;-85
2022/06/01 12:47:49;;;;;;;;;;;18.90;99.90;;;;;;5180982;27;19908;-85
2022/06/01 12:50:16;;;;;;;;;;;19.10;99.90;;;;;;5180979;27;19907;-87
2022/06/01 12:52:42;;;;;;;;;;;19.10;99.90;;;;;;5162803;27;19929;-86
2022/06/01 12:55:09;;;;;;;;;;;19.10;99.90;;;;;;5168615;27;20268;-85
2022/06/01 12:57:55;;;;;;;;;;;18.90;99.90;;;;;;5158450;27;19994;-85
2022/06/01 13:00:27;;;;;;;;;;;18.80;99.90;;;;;;5180100;27;19961;-84
2022/06/01 13:02:53;;;;;;;;;;;18.60;99.90;;;;;;5162974;27;19936;-84
2022/06/01 13:05:20;;;;;;;;;;;18.30;99.90;;;;;;5180720;27;19910;-84
2022/06/01 13:07:48;;;;;;;;;;;18.20;99.90;;;;;;5163045;27;19911;-86
2022/06/01 13:10:34;;;;;;;;;;;18.20;99.90;;;;;;5180805;27;19929;-86
2022/06/01 13:13:05;;;;;;;;;;;18.20;99.90;;;;;;5178500;27;19907;-85
2022/06/01 13:15:31;;;;;;;;;;;17.90;99.90;;;;;;5180564;27;19907;-84
2022/06/01 13:18:04;;;;;;;;;;;17.80;99.90;;;;;;5162601;27;19918;-84
2022/06/01 13:20:37;;;;;;;;;;;17.70;99.90;;;;;;5180478;27;19914;-85
2022/06/01 13:23:05;;;;;;;;;;;17.40;99.90;;;;;;5180273;27;19911;-83
2022/06/01 13:25:32;;;;;;;;;;;17.70;99.90;;;;;;5162245;27;19974;-86
2022/06/01 13:27:58;;;;;;;;;;;17.50;99.90;;;;;;5179923;27;19911;-83
2022/06/01 13:30:24;;;;;;;;;;;17.50;99.90;;;;;;5180105;27;19914;-83
2022/06/01 13:32:50;;;;;;;;;;;17.40;99.90;;;;;;5178150;27;19907;-84
2022/06/01 13:35:16;;;;;;;;;;;17.00;99.90;;;;;;5179680;27;20026;-84
2022/06/01 13:37:43;;;;;;;;;;;16.90;99.90;;;;;;5161144;27;19929;-84
2022/06/01 13:40:20;;;;;;;;;;;17.00;99.90;;;;;;5180264;27;19911;-86
2022/06/01 13:42:49;;;;;;;;;;;17.00;99.90;;;;;;5180195;27;19907;-86
2022/06/01 13:45:17;;;;;;;;;;;17.00;99.90;;;;;;5179893;27;19907;-87
2022/06/01 13:47:47;;;;;;;;;;;17.10;99.90;;;;;;5180095;27;19963;-86
2022/06/01 13:50:13;;;;;;;;;;;17.10;99.90;;;;;;5179920;27;19915;-86
2022/06/01 13:52:39;;;;;;;;;;;17.00;99.90;;;;;;5162272;27;19919;-86
2022/06/01 13:55:07;;;;;;;;;;;17.40;99.90;;;;;;5174139;27;19930;-88
2022/06/01 13:57:44;;;;;;;;;;;17.60;99.90;;;;;;5177323;27;19906;-85
2022/06/01 14:00:17;;;;;;;;;;;17.90;99.90;;;;;;5177897;27;19966;-84
2022/06/01 14:02:51;;;;;;;;;;;18.10;99.90;;;;;;5180489;27;19907;-86
2022/06/01 14:05:19;;;;;;;;;;;18.40;99.90;;;;;;5183101;27;19911;-83
2022/06/01 14:07:48;;;;;;;;;;;18.70;99.90;;;;;;5182291;27;19907;-84
2022/06/01 14:10:13;;;;;;;;;;;18.70;99.90;;;;;;5164324;27;19943;-85
2022/06/01 14:12:42;;;;;;;;;;;19.00;99.90;;;;;;5183484;27;19914;-90
2022/06/01 14:15:09;;;;;;;;;;;18.90;99.90;;;;;;5165026;27;19911;-90
2022/06/01 14:17:39;;;;;;;;;;;18.60;99.90;;;;;;5183465;27;19933;-88
2022/06/01 14:23:30;;;;;;;;;;;18.30;99.90;;;;;;5183270;27;19961;-89
2022/06/01 14:28:41;;;;;;;;;;;18.30;99.90;;;;;;5183452;27;19911;-88
2022/06/01 14:31:13;;;;;;;;;;;18.30;99.90;;;;;;5165165;27;20464;-89
2022/06/01 14:33:40;;;;;;;;;;;18.50;99.90;;;;;;5164809;27;19911;-89
2022/06/01 14:36:09;;;;;;;;;;;18.60;99.90;;;;;;5164252;27;19913;-88
2022/06/01 14:38:35;;;;;;;;;;;18.90;99.90;;;;;;5147285;27;19932;-91
2022/06/01 14:41:02;;;;;;;;;;;19.20;99.90;;;;;;5147630;27;19915;-88
2022/06/01 14:43:32;;;;;;;;;;;19.40;99.90;;;;;;5164614;27;19907;-88
2022/06/01 14:45:57;;;;;;;;;;;19.30;99.90;;;;;;5164738;27;19945;-88
2022/06/01 14:48:23;;;;;;;;;;;19.00;99.40;;;;;;5181621;27;19907;-87
2022/06/01 14:50:49;;;;;;;;;;;18.70;99.90;;;;;;5164288;27;19971;-89
2022/06/01 14:53:41;;;;;;;;;;;19.00;99.90;;;;;;5146414;27;19930;-89
2022/06/01 14:56:07;;;;;;;;;;;19.10;99.90;;;;;;5143436;27;19931;-88
2022/06/01 14:58:36;;;;;;;;;;;19.20;99.90;;;;;;5164933;27;19907;-90
2022/06/01 15:01:07;;;;;;;;;;;19.00;99.40;;;;;;5164547;27;19907;-87
2022/06/01 15:03:35;;;;;;;;;;;18.80;99.50;;;;;;5163649;27;19913;-89
2022/06/01 15:06:10;;;;;;;;;;;18.80;99.80;;;;;;5180706;27;19923;-89
2022/06/01 15:08:39;;;;;;;;;;;18.50;99.90;;;;;;5182537;27;20027;-90